Time;durP1;ratioP1;P1;durP2;ratioP2;P2;SDS_P1;SDS_P2;PMS_P1;PMS_P2;Temp;Humidity;BMP_temperature;BMP_pressure;BME280_temperature;BME280_humidity;BME280_pressure;Samples;Min_cycle;Max_cycle;Signal;HPM_P1;HPM_P2
2023/03/29 00:02:32;;;;;;;2.60;1.10;;;;;;;3.40;79.53;98053.66;82105;1295;3012639;-68
2023/03/29 00:05:00;;;;;;;1.10;1.00;;;;;;;3.18;79.18;98071.41;80829;1294;3049297;-70
2023/03/29 00:07:28;;;;;;;2.00;1.30;;;;;;;2.96;80.28;98059.40;82136;1294;3012619;-67
2023/03/29 00:09:55;;;;;;;1.80;1.00;;;;;;;2.75;80.96;98055.15;82083;1294;3011691;-66
2023/03/29 00:12:23;;;;;;;2.60;1.30;;;;;;;2.78;80.75;98051.36;80848;1295;3051455;-68
2023/03/29 00:14:50;;;;;;;2.30;1.20;;;;;;;2.77;80.90;98047.95;82092;1294;3012789;-65
2023/03/29 00:17:17;;;;;;;1.70;1.40;;;;;;;2.66;81.70;98055.77;82076;1294;3011125;-63
2023/03/29 00:19:46;;;;;;;2.60;1.50;;;;;;;2.66;81.42;98071.50;80837;1294;3026342;-67
2023/03/29 00:22:15;;;;;;;3.60;2.30;;;;;;;2.69;81.15;98063.58;82133;1294;3011482;-70
2023/03/29 00:24:46;;;;;;;4.50;2.00;;;;;;;2.65;80.94;98070.32;80840;1294;3026469;-66
2023/03/29 00:27:13;;;;;;;3.00;1.90;;;;;;;2.43;81.95;98059.66;82082;1294;3011298;-66
2023/03/29 00:29:43;;;;;;;2.80;1.80;;;;;;;2.46;82.36;98068.35;80803;1298;3050131;-67
2023/03/29 00:32:09;;;;;;;3.30;2.00;;;;;;;2.57;82.02;98055.54;82035;1295;3012886;-69
2023/03/29 00:34:36;;;;;;;3.20;1.80;;;;;;;2.51;82.86;98054.43;82044;1294;3011361;-66
2023/03/29 00:37:08;;;;;;;2.80;1.70;;;;;;;3.12;82.34;98057.91;80800;1295;3028151;-66
2023/03/29 00:39:35;;;;;;;6.10;2.50;;;;;;;3.73;79.64;98061.02;82073;1295;3011383;-66
2023/03/29 00:42:12;;;;;;;4.00;2.30;;;;;;;3.72;79.02;98059.36;80818;1294;3050037;-70
2023/03/29 00:45:10;;;;;;;5.60;2.60;;;;;;;3.78;78.49;98056.94;80729;1297;3052590;-65
2023/03/29 00:47:42;;;;;;;7.30;2.80;;;;;;;3.38;79.03;98062.06;80807;1294;3052959;-68
2023/03/29 00:50:17;;;;;;;6.80;3.10;;;;;;;3.09;80.32;98063.08;81942;1297;3011049;-66
2023/03/29 00:52:47;;;;;;;3.80;2.30;;;;;;;3.19;80.26;98080.05;80847;1294;3049638;-65
2023/03/29 00:55:17;;;;;;;3.90;2.10;;;;;;;3.11;79.87;98089.43;81967;1295;3012167;-66
2023/03/29 00:57:46;;;;;;;4.30;2.00;;;;;;;2.81;81.54;98092.89;80707;1295;3048720;-67
2023/03/29 01:00:25;;;;;;;3.40;2.20;;;;;;;2.83;81.51;98099.17;80701;1295;3053453;-66
2023/03/29 01:02:54;;;;;;;4.70;2.00;;;;;;;2.56;82.59;98098.09;81959;1295;3011099;-68
2023/03/29 01:05:36;;;;;;;5.00;2.60;;;;;;;2.56;82.75;98100.21;80650;1299;3051640;-65
2023/03/29 01:08:07;;;;;;;3.20;2.00;;;;;;;2.55;82.13;98103.47;80685;1298;3053086;-67
2023/03/29 01:10:41;;;;;;;5.30;2.50;;;;;;;2.49;82.50;98107.60;81965;1298;3011458;-67
2023/03/29 01:13:12;;;;;;;4.10;2.40;;;;;;;2.41;82.94;98108.15;80802;1295;3052589;-68
2023/03/29 01:15:40;;;;;;;7.30;3.30;;;;;;;2.45;83.32;98115.58;81981;1295;3011348;-65
2023/03/29 01:18:08;;;;;;;6.30;3.00;;;;;;;2.48;83.55;98125.46;80627;1295;3025984;-66
2023/03/29 01:20:54;;;;;;;3.80;2.60;;;;;;;3.18;83.33;98118.65;81943;1297;3012907;-65
2023/03/29 01:23:36;;;;;;;8.30;3.10;;;;;;;3.55;79.84;98123.81;80705;1298;3053686;-68
2023/03/29 01:26:17;;;;;;;5.40;3.20;;;;;;;3.54;80.18;98130.65;80617;1302;3051365;-66
2023/03/29 01:28:51;;;;;;;5.20;2.90;;;;;;;3.24;81.47;98138.08;80689;1295;3069730;-66
2023/03/29 01:31:20;;;;;;;;;;;;;;;3.26;81.19;98139.02;81824;1295;3010983;-65
2023/03/29 01:33:50;;;;;;;4.70;2.70;;;;;;;2.97;82.07;98146.71;80699;1295;3058064;-67
2023/03/29 01:36:26;;;;;;;4.10;2.70;;;;;;;2.92;82.26;98153.70;80668;1295;3049664;-68
2023/03/29 01:38:57;;;;;;;5.10;3.10;;;;;;;2.84;82.54;98159.64;81960;1295;3011441;-71
2023/03/29 01:41:42;;;;;;;9.40;4.20;;;;;;;2.86;82.14;98159.04;80800;1298;3050697;-67
2023/03/29 01:44:17;;;;;;;6.10;3.50;;;;;;;2.67;82.40;98154.05;80566;1300;3053139;-69
2023/03/29 01:46:47;;;;;;;4.80;3.40;;;;;;;2.54;83.26;98151.27;81333;1301;3011138;-65
2023/03/29 01:49:24;;;;;;;5.90;4.50;;;;;;;2.53;83.52;98156.17;81978;1301;3012627;-66
2023/03/29 01:52:00;;;;;;;4.80;3.50;;;;;;;2.27;84.77;98159.14;80780;1294;3051616;-69
2023/03/29 01:54:34;;;;;;;6.20;3.40;;;;;;;2.14;86.11;98157.67;80736;1295;3055784;-69
2023/03/29 01:57:03;;;;;;;4.20;2.50;;;;;;;2.87;85.13;98158.45;81944;1295;3011444;-67
2023/03/29 01:59:33;;;;;;;5.00;3.00;;;;;;;3.70;82.31;98154.52;80587;1295;3051869;-68
2023/03/29 02:02:01;;;;;;;4.50;2.40;;;;;;;3.70;81.29;98155.27;82011;1294;3012681;-67
2023/03/29 02:04:33;;;;;;;2.90;2.00;;;;;;;3.49;80.96;98153.55;81566;1294;3011111;-64
2023/03/29 02:07:07;;;;;;;5.20;2.30;;;;;;;3.33;81.51;98162.87;81364;1298;3011310;-66
2023/03/29 02:09:36;;;;;;;3.50;2.00;;;;;;;3.21;81.75;98173.38;81932;1298;3011045;-68
2023/03/29 02:12:05;;;;;;;5.50;2.40;;;;;;;2.82;82.59;98178.96;80723;1295;3026510;-66
2023/03/29 02:14:34;;;;;;;4.10;2.30;;;;;;;2.44;84.08;98177.67;81984;1295;3011214;-71
2023/03/29 02:17:24;;;;;;;5.60;2.50;;;;;;;2.60;83.09;98177.06;81529;1294;3011271;-67
2023/03/29 02:20:16;;;;;;;4.00;2.30;;;;;;;2.23;84.52;98181.62;80680;1295;3049006;-65
2023/03/29 02:22:49;;;;;;;6.60;2.60;;;;;;;2.07;85.72;98175.79;80787;1294;3053405;-64
2023/03/29 02:25:16;;;;;;;4.40;2.60;;;;;;;2.17;85.03;98174.29;82061;1294;3011263;-66
2023/03/29 02:27:44;;;;;;;5.10;2.50;;;;;;;1.96;85.37;98180.60;80729;1296;3052108;-66
2023/03/29 02:30:11;;;;;;;2.60;1.50;;;;;;;2.02;85.55;98185.83;82003;1297;3011250;-69
2023/03/29 02:32:48;;;;;;;4.40;1.80;;;;;;;2.59;85.18;98183.98;79242;1295;3052207;-67
2023/03/29 02:35:19;;;;;;;2.80;1.40;;;;;;;3.01;83.11;98187.35;81971;1295;3011220;-66
2023/03/29 02:37:48;;;;;;;3.40;1.60;;;;;;;3.12;82.08;98192.30;80659;1295;3048566;-67
2023/03/29 02:40:15;;;;;;;3.00;1.60;;;;;;;2.78;82.64;98190.05;81973;1297;3012673;-68
2023/03/29 02:42:43;;;;;;;1.80;1.40;;;;;;;2.76;82.76;98198.08;81943;1295;3011330;-66
2023/03/29 02:45:12;;;;;;;2.90;1.60;;;;;;;2.68;82.49;98192.43;80719;1297;3051099;-69
2023/03/29 02:47:48;;;;;;;2.80;1.90;;;;;;;2.36;83.30;98196.05;81904;1298;3011218;-68
2023/03/29 02:50:18;;;;;;;3.60;1.90;;;;;;;2.03;85.21;98189.42;80731;1295;3052250;-69
2023/03/29 02:52:52;;;;;;;3.50;2.20;;;;;;;1.95;85.52;98189.10;81875;1295;3011594;-69
2023/03/29 02:55:21;;;;;;;6.40;3.20;;;;;;;1.68;86.73;98198.81;80701;1295;3049773;-66
2023/03/29 02:57:56;;;;;;;4.50;2.80;;;;;;;1.53;87.76;98202.05;80585;1295;3052361;-70
2023/03/29 03:00:24;;;;;;;5.70;3.00;;;;;;;1.63;87.87;98204.55;81980;1295;3012158;-65
2023/03/29 03:02:51;;;;;;;4.80;3.20;;;;;;;1.65;87.67;98206.86;82080;1294;3011236;-69
2023/03/29 03:05:24;;;;;;;3.40;2.40;;;;;;;1.73;87.60;98210.66;80710;1295;3068213;-66
2023/03/29 03:07:52;;;;;;;4.40;2.20;;;;;;;2.31;86.38;98214.23;81985;1295;3012854;-69
2023/03/29 03:10:18;;;;;;;4.20;2.50;;;;;;;3.14;83.73;98221.29;81939;1295;3011318;-66
2023/03/29 03:12:48;;;;;;;5.40;2.70;;;;;;;3.32;82.07;98218.33;80804;1294;3053068;-68
2023/03/29 03:15:15;;;;;;;7.10;3.60;;;;;;;3.26;81.39;98221.58;81975;1301;3012860;-67
2023/03/29 03:17:43;;;;;;;6.60;4.10;;;;;;;3.06;81.07;98218.42;81998;1298;3011333;-67
2023/03/29 03:20:12;;;;;;;8.10;4.70;;;;;;;2.71;81.13;98223.04;80691;1295;3070062;-66
2023/03/29 03:22:48;;;;;;;9.50;5.60;;;;;;;2.43;81.70;98234.06;81972;1298;3011351;-68
2023/03/29 03:25:21;;;;;;;9.70;5.70;;;;;;;2.22;81.89;98235.55;80815;1294;3049541;-65
2023/03/29 03:27:49;;;;;;;13.20;6.30;;;;;;;2.01;82.75;98238.58;82029;1295;3012952;-67
2023/03/29 03:30:16;;;;;;;11.00;6.00;;;;;;;1.97;82.64;98243.23;81938;1295;3011212;-69
2023/03/29 03:33:08;;;;;;;12.00;6.40;;;;;;;1.75;83.46;98248.54;80824;1295;3051987;-68
2023/03/29 03:36:01;;;;;;;10.80;5.80;;;;;;;1.61;83.82;98258.98;80838;1294;3069212;-67
2023/03/29 03:38:33;;;;;;;11.60;5.20;;;;;;;1.53;84.46;98257.80;80676;1296;3050546;-70
2023/03/29 03:41:00;;;;;;;9.80;5.40;;;;;;;1.55;84.48;98251.67;81958;1295;3011271;-69
2023/03/29 03:43:30;;;;;;;9.60;5.40;;;;;;;1.69;84.09;98250.02;80718;1294;3048037;-72
2023/03/29 03:45:56;;;;;;;14.70;6.40;;;;;;;1.45;84.43;98245.36;81981;1295;3012562;-68
2023/03/29 03:48:24;;;;;;;12.70;5.70;;;;;;;1.33;85.18;98245.34;81952;1295;3011468;-68
2023/03/29 03:51:16;;;;;;;11.30;5.70;;;;;;;1.48;84.55;98244.52;80796;1294;3051971;-69
2023/03/29 03:55:10;;;;;;;9.90;4.70;;;;;;;1.57;85.32;98248.47;80516;1301;3015549;-71
2023/03/29 03:57:52;;;;;;;6.80;3.90;;;;;;;2.38;82.56;98253.31;78087;1305;3053589;-71
2023/03/29 04:00:19;;;;;;;8.60;5.00;;;;;;;2.67;81.00;98254.39;79299;1300;3011516;-67
2023/03/29 04:02:53;;;;;;;9.10;4.60;;;;;;;2.73;80.45;98253.75;78053;1307;3054010;-65
2023/03/29 04:05:20;;;;;;;10.00;4.50;;;;;;;2.52;80.32;98262.52;79172;1306;3013317;-67
2023/03/29 04:07:47;;;;;;;11.20;5.30;;;;;;;2.11;81.55;98273.20;77988;1294;3015155;-67
2023/03/29 04:10:52;;;;;;;8.70;5.50;;;;;;;1.90;82.50;98262.39;78429;1300;3048626;-71
2023/03/29 04:13:25;;;;;;;9.70;5.90;;;;;;;1.91;82.64;98258.72;78486;1294;3053656;-68
2023/03/29 04:16:12;;;;;;;10.80;5.60;;;;;;;1.73;83.70;98279.34;78384;1297;3050631;-68
2023/03/29 04:18:43;;;;;;;9.40;5.40;;;;;;;1.73;84.35;98274.91;79462;1298;3011929;-67
2023/03/29 04:21:11;;;;;;;9.60;5.00;;;;;;;1.76;84.26;98272.82;78382;1299;3026599;-71
2023/03/29 04:23:39;;;;;;;7.60;4.60;;;;;;;1.89;83.88;98284.91;79705;1295;3013329;-71
2023/03/29 04:26:06;;;;;;;8.80;5.30;;;;;;;1.71;83.88;98297.41;79570;1293;3011599;-69
2023/03/29 04:28:56;;;;;;;9.80;5.70;;;;;;;1.61;84.51;98287.11;78682;1297;3049598;-66
2023/03/29 04:31:42;;;;;;;8.00;4.60;;;;;;;1.61;84.49;98287.48;78556;1297;3054126;-68
2023/03/29 04:34:28;;;;;;;9.30;5.40;;;;;;;1.49;84.06;98304.89;78626;1297;3051577;-68
2023/03/29 04:36:57;;;;;;;8.80;5.70;;;;;;;1.57;83.78;98303.84;80734;1298;3013026;-66
2023/03/29 04:39:32;;;;;;;9.60;5.10;;;;;;;1.54;84.31;98303.33;80128;1297;3013609;-65
2023/03/29 04:42:10;;;;;;;7.10;3.70;;;;;;;2.07;82.81;98304.48;79088;1295;3069079;-67
2023/03/29 04:44:41;;;;;;;5.60;4.10;;;;;;;2.72;80.90;98316.74;79697;1300;3011849;-68
2023/03/29 04:47:13;;;;;;;9.40;5.00;;;;;;;2.99;79.33;98315.09;78492;1300;3056151;-71
2023/03/29 04:49:55;;;;;;;9.60;4.90;;;;;;;2.78;78.97;98314.71;78708;1295;3049224;-69
2023/03/29 04:52:38;;;;;;;9.20;5.20;;;;;;;2.69;79.24;98316.73;78477;1294;3052736;-72
2023/03/29 04:55:11;;;;;;;8.60;5.30;;;;;;;2.65;79.43;98327.09;79754;1295;3013557;-70
2023/03/29 04:57:55;;;;;;;13.00;7.40;;;;;;;2.12;79.88;98329.10;78515;1297;3053209;-69
2023/03/29 05:00:31;;;;;;;14.60;7.00;;;;;;;2.01;81.23;98327.52;78379;1298;3052551;-65
2023/03/29 05:03:13;;;;;;;16.10;6.80;;;;;;;1.89;81.57;98340.66;78530;1297;3068546;-69
2023/03/29 05:05:46;;;;;;;9.40;5.80;;;;;;;1.89;81.62;98333.26;78703;1294;3052134;-71
2023/03/29 05:08:12;;;;;;;11.90;6.50;;;;;;;1.86;81.63;98343.38;79711;1295;3018526;-69
2023/03/29 05:11:08;;;;;;;12.40;5.50;;;;;;;1.81;81.88;98337.73;78316;1295;3053499;-72
2023/03/29 05:13:35;;;;;;;11.80;5.90;;;;;;;1.68;82.59;98341.72;79681;1297;3013441;-67
2023/03/29 05:16:03;;;;;;;14.40;7.60;;;;;;;1.46;83.91;98345.59;79822;1297;3011789;-67
2023/03/29 05:18:31;;;;;;;11.70;6.70;;;;;;;1.42;84.66;98350.08;78303;1300;3068871;-71
2023/03/29 05:20:58;;;;;;;13.60;7.30;;;;;;;1.35;84.96;98356.19;79747;1295;3011899;-71
2023/03/29 05:23:25;;;;;;;11.80;5.50;;;;;;;1.40;85.97;98359.81;79526;1294;3011599;-66
2023/03/29 05:26:09;;;;;;;8.80;4.00;;;;;;;2.21;84.33;98359.48;78593;1295;3053145;-71
2023/03/29 05:28:36;;;;;;;7.20;4.10;;;;;;;2.73;82.12;98358.51;79841;1294;3012481;-71
2023/03/29 05:31:04;;;;;;;12.10;5.10;;;;;;;2.72;81.15;98359.95;79571;1299;3011986;-68
2023/03/29 05:33:34;;;;;;;10.20;5.10;;;;;;;2.74;81.41;98362.14;78545;1300;3068635;-66
2023/03/29 05:36:04;;;;;;;8.20;5.00;;;;;;;2.72;81.41;98373.30;79663;1297;3015111;-67
2023/03/29 05:38:32;;;;;;;8.50;4.50;;;;;;;2.46;81.63;98386.38;78609;1294;3026348;-67
2023/03/29 05:41:02;;;;;;;8.30;5.00;;;;;;;2.21;82.70;98388.65;79651;1300;3013796;-68
2023/03/29 05:43:33;;;;;;;8.70;4.80;;;;;;;2.15;83.67;98395.48;78903;1294;3052376;-71
2023/03/29 05:46:01;;;;;;;10.70;5.50;;;;;;;1.99;84.48;98403.80;79911;1294;3013420;-67
2023/03/29 05:48:29;;;;;;;6.20;3.30;;;;;;;1.91;84.66;98406.73;79690;1299;3012389;-71
2023/03/29 05:50:57;;;;;;;3.70;2.60;;;;;;;1.74;83.86;98410.17;78340;1300;3068496;-67
2023/03/29 05:53:26;;;;;;;3.40;2.00;;;;;;;1.55;84.47;98417.33;79793;1300;3013814;-70
2023/03/29 05:55:56;;;;;;;2.80;1.80;;;;;;;1.49;84.80;98425.20;79600;1297;3011531;-68
2023/03/29 05:58:25;;;;;;;2.30;1.60;;;;;;;1.54;84.30;98435.86;79847;1296;3013117;-70
2023/03/29 06:00:55;;;;;;;3.30;1.40;;;;;;;1.30;85.17;98447.66;79436;1294;3011616;-66
2023/03/29 06:03:39;;;;;;;2.20;1.20;;;;;;;1.33;85.25;98458.79;78618;1300;3050102;-66
2023/03/29 06:06:08;;;;;;;1.20;0.70;;;;;;;1.80;85.20;98440.48;79647;1300;3013432;-71
2023/03/29 06:08:38;;;;;;;2.30;1.40;;;;;;;2.53;83.29;98444.52;79169;1297;3011672;-69
2023/03/29 06:11:14;;;;;;;1.40;1.20;;;;;;;2.59;81.73;98456.49;78374;1301;3068916;-69
2023/03/29 06:14:09;;;;;;;1.10;0.90;;;;;;;2.16;81.79;98455.09;78220;1301;3051007;-69
2023/03/29 06:16:42;;;;;;;1.70;1.10;;;;;;;1.86;82.71;98454.92;79859;1295;3011710;-68
2023/03/29 06:19:10;;;;;;;1.90;1.30;;;;;;;1.55;83.79;98458.61;78670;1294;3048865;-66
2023/03/29 06:21:37;;;;;;;2.00;1.40;;;;;;;1.37;84.43;98471.05;79850;1295;3013084;-66
2023/03/29 06:24:08;;;;;;;1.60;0.90;;;;;;;1.30;85.43;98458.70;79413;1298;3011535;-72
2023/03/29 06:26:40;;;;;;;1.40;1.10;;;;;;;1.23;85.61;98455.19;79748;1295;3013245;-67
2023/03/29 06:29:09;;;;;;;3.50;1.40;;;;;;;1.11;86.05;98452.20;78590;1297;3053225;-67
2023/03/29 06:31:36;;;;;;;1.90;1.10;;;;;;;1.02;86.51;98460.47;79927;1298;3012874;-67
2023/03/29 06:34:04;;;;;;;4.20;1.70;;;;;;;1.04;86.64;98463.67;79735;1301;3014131;-66
2023/03/29 06:36:51;;;;;;;3.50;1.60;;;;;;;0.91;86.75;98472.61;78679;1296;3049249;-67
2023/03/29 06:39:21;;;;;;;1.80;1.00;;;;;;;0.82;86.81;98475.84;80209;1300;3011949;-66
2023/03/29 06:42:19;;;;;;;2.30;1.00;;;;;;;1.61;85.36;98479.05;78588;1301;3048597;-69
2023/03/29 06:45:19;;;;;;;1.30;1.00;;;;;;;2.18;82.55;98465.34;78445;1300;3052481;-68
2023/03/29 06:47:48;;;;;;;2.30;1.50;;;;;;;2.00;81.65;98457.45;79927;1298;3013387;-71
2023/03/29 06:50:16;;;;;;;1.30;1.10;;;;;;;1.82;81.80;98473.41;80135;1300;3011603;-68
2023/03/29 06:52:56;;;;;;;1.90;1.60;;;;;;;1.74;82.05;98466.66;78827;1296;3057357;-68
2023/03/29 06:55:24;;;;;;;3.90;2.00;;;;;;;1.62;82.53;98482.83;79845;1295;3013658;-70
2023/03/29 06:57:55;;;;;;;2.30;1.50;;;;;;;1.51;82.07;98491.02;78646;1298;3047890;-70
2023/03/29 07:00:28;;;;;;;2.20;1.50;;;;;;;1.33;82.29;98494.52;80113;1301;3011621;-71
2023/03/29 07:03:09;;;;;;;2.40;1.50;;;;;;;1.32;82.38;98495.20;78529;1295;3068299;-69
2023/03/29 07:05:39;;;;;;;4.40;1.60;;;;;;;1.27;82.80;98500.58;80046;1300;3012874;-69
2023/03/29 07:10:46;;;;;;;3.10;1.90;;;;;;;1.28;83.11;98510.57;78673;1310;3048473;-67
2023/03/29 07:13:33;;;;;;;3.00;1.90;;;;;;;1.47;81.63;98509.32;78754;1298;3054218;-70
2023/03/29 07:16:02;;;;;;;3.60;1.50;;;;;;;1.47;81.51;98522.45;80110;1298;3011906;-72
2023/03/29 07:18:54;;;;;;;3.90;1.90;;;;;;;1.42;81.87;98523.14;78607;1300;3052661;-73
2023/03/29 07:21:38;;;;;;;2.50;1.80;;;;;;;1.40;82.14;98529.94;78845;1300;3051427;-68
2023/03/29 07:24:09;;;;;;;2.80;1.70;;;;;;;1.45;82.20;98537.00;80010;1297;3011893;-70
2023/03/29 07:26:38;;;;;;;3.20;1.80;;;;;;;1.37;82.51;98545.43;78445;1298;3050662;-72
2023/03/29 07:29:05;;;;;;;1.20;1.10;;;;;;;1.38;82.95;98556.42;80137;1295;3013702;-71
2023/03/29 07:31:34;;;;;;;1.80;1.30;;;;;;;1.93;82.30;98552.91;79952;1300;3012039;-69
2023/03/29 07:34:23;;;;;;;2.60;1.50;;;;;;;2.51;79.50;98556.95;78359;1299;3050898;-71
2023/03/29 07:36:50;;;;;;;2.30;1.70;;;;;;;2.58;78.65;98554.22;79661;1308;3013020;-68
2023/03/29 07:39:18;;;;;;;2.10;1.20;;;;;;;2.50;78.55;98551.63;79651;1298;3013016;-69
2023/03/29 07:41:57;;;;;;;2.90;1.30;;;;;;;1.96;78.41;98557.61;79399;1295;3053013;-69
2023/03/29 07:44:25;;;;;;;1.80;1.30;;;;;;;2.10;78.92;98556.21;79788;1296;3012822;-73
